sensor_id;sensor_type;location;lat;lon;timestamp;temperature;humidity
21244;DHT22;10780;50.942;4.028;2022-12-31T00:01:14;13.80;99.90
21244;DHT22;10780;50.942;4.028;2022-12-31T00:03:40;13.70;99.90
21244;DHT22;10780;50.942;4.028;2022-12-31T00:06:33;13.70;99.90
21244;DHT22;10780;50.942;4.028;2022-12-31T00:09:02;13.70;99.90
21244;DHT22;10780;50.942;4.028;2022-12-31T00:11:29;13.70;99.90
21244;DHT22;10780;50.942;4.028;2022-12-31T00:13:55;13.60;99.90
21244;DHT22;10780;50.942;4.028;2022-12-31T00:16:23;13.60;99.90
21244;DHT22;10780;50.942;4.028;2022-12-31T00:18:51;13.50;99.90
21244;DHT22;10780;50.942;4.028;2022-12-31T00:21:18;13.50;99.90
21244;DHT22;10780;50.942;4.028;2022-12-31T00:23:44;13.50;99.90
21244;DHT22;10780;50.942;4.028;2022-12-31T00:26:15;13.50;99.90
21244;DHT22;10780;50.942;4.028;2022-12-31T00:28:41;13.30;99.90
21244;DHT22;10780;50.942;4.028;2022-12-31T00:33:35;13.30;99.90
21244;DHT22;10780;50.942;4.028;2022-12-31T00:36:09;13.30;99.90
21244;DHT22;10780;50.942;4.028;2022-12-31T00:38:35;13.30;99.90
21244;DHT22;10780;50.942;4.028;2022-12-31T00:41:01;13.20;99.90
21244;DHT22;10780;50.942;4.028;2022-12-31T00:43:27;13.10;99.90
21244;DHT22;10780;50.942;4.028;2022-12-31T00:45:53;13.00;99.90
21244;DHT22;10780;50.942;4.028;2022-12-31T00:48:19;13.00;99.90
21244;DHT22;10780;50.942;4.028;2022-12-31T00:50:46;12.90;99.90
21244;DHT22;10780;50.942;4.028;2022-12-31T00:53:11;12.90;99.90
21244;DHT22;10780;50.942;4.028;2022-12-31T00:55:37;12.90;99.90
21244;DHT22;10780;50.942;4.028;2022-12-31T00:58:03;12.80;99.90
21244;DHT22;10780;50.942;4.028;2022-12-31T01:00:28;12.80;99.90
21244;DHT22;10780;50.942;4.028;2022-12-31T01:02:54;12.80;99.90
21244;DHT22;10780;50.942;4.028;2022-12-31T01:05:20;12.80;99.90
21244;DHT22;10780;50.942;4.028;2022-12-31T01:07:45;12.80;99.90
21244;DHT22;10780;50.942;4.028;2022-12-31T01:10:11;12.70;99.90
21244;DHT22;10780;50.942;4.028;2022-12-31T01:12:36;12.80;99.90
21244;DHT22;10780;50.942;4.028;2022-12-31T01:15:02;12.70;99.90
21244;DHT22;10780;50.942;4.028;2022-12-31T01:17:28;12.70;99.90
21244;DHT22;10780;50.942;4.028;2022-12-31T01:19:54;12.70;99.90
21244;DHT22;10780;50.942;4.028;2022-12-31T01:22:19;12.80;99.90
21244;DHT22;10780;50.942;4.028;2022-12-31T01:24:45;12.70;99.90
21244;DHT22;10780;50.942;4.028;2022-12-31T01:27:11;12.70;99.90
21244;DHT22;10780;50.942;4.028;2022-12-31T01:29:36;12.80;99.90
21244;DHT22;10780;50.942;4.028;2022-12-31T01:32:02;12.80;99.90
21244;DHT22;10780;50.942;4.028;2022-12-31T01:34:28;12.80;99.90
21244;DHT22;10780;50.942;4.028;2022-12-31T01:36:53;12.80;99.90
21244;DHT22;10780;50.942;4.028;2022-12-31T01:39:19;12.80;99.90
21244;DHT22;10780;50.942;4.028;2022-12-31T01:41:46;12.80;99.90
21244;DHT22;10780;50.942;4.028;2022-12-31T01:46:57;13.00;99.90
21244;DHT22;10780;50.942;4.028;2022-12-31T01:49:41;12.90;99.90
21244;DHT22;10780;50.942;4.028;2022-12-31T01:52:21;12.90;99.90
21244;DHT22;10780;50.942;4.028;2022-12-31T01:55:37;12.90;99.90
21244;DHT22;10780;50.942;4.028;2022-12-31T01:57:45;12.80;99.90
21244;DHT22;10780;50.942;4.028;2022-12-31T02:00:12;12.80;99.90
21244;DHT22;10780;50.942;4.028;2022-12-31T02:02:38;12.80;99.90
21244;DHT22;10780;50.942;4.028;2022-12-31T02:05:20;12.80;99.90
21244;DHT22;10780;50.942;4.028;2022-12-31T02:07:47;12.80;99.90
21244;DHT22;10780;50.942;4.028;2022-12-31T02:10:13;12.70;99.90
21244;DHT22;10780;50.942;4.028;2022-12-31T02:12:39;12.80;99.90
21244;DHT22;10780;50.942;4.028;2022-12-31T02:15:05;12.80;99.90
21244;DHT22;10780;50.942;4.028;2022-12-31T02:17:39;12.80;99.90
21244;DHT22;10780;50.942;4.028;2022-12-31T02:25:45;13.00;99.90
21244;DHT22;10780;50.942;4.028;2022-12-31T02:31:03;13.20;99.90
21244;DHT22;10780;50.942;4.028;2022-12-31T02:33:46;13.30;99.90
21244;DHT22;10780;50.942;4.028;2022-12-31T02:36:19;13.50;99.90
21244;DHT22;10780;50.942;4.028;2022-12-31T02:38:47;13.60;99.90
21244;DHT22;10780;50.942;4.028;2022-12-31T02:41:16;13.70;99.90
21244;DHT22;10780;50.942;4.028;2022-12-31T02:44:00;13.80;99.90
21244;DHT22;10780;50.942;4.028;2022-12-31T02:46:41;14.00;99.90
21244;DHT22;10780;50.942;4.028;2022-12-31T02:49:17;14.00;99.90
21244;DHT22;10780;50.942;4.028;2022-12-31T02:51:57;14.00;99.90
21244;DHT22;10780;50.942;4.028;2022-12-31T02:59:37;14.00;99.90
21244;DHT22;10780;50.942;4.028;2022-12-31T03:02:27;14.10;99.90
21244;DHT22;10780;50.942;4.028;2022-12-31T03:04:55;14.10;99.90
21244;DHT22;10780;50.942;4.028;2022-12-31T03:07:27;14.10;99.90
21244;DHT22;10780;50.942;4.028;2022-12-31T03:09:53;14.10;99.90
21244;DHT22;10780;50.942;4.028;2022-12-31T03:12:21;14.20;99.90
21244;DHT22;10780;50.942;4.028;2022-12-31T03:15:07;14.20;99.90
21244;DHT22;10780;50.942;4.028;2022-12-31T03:20:11;14.30;99.90
21244;DHT22;10780;50.942;4.028;2022-12-31T03:22:56;14.30;99.90
21244;DHT22;10780;50.942;4.028;2022-12-31T03:25:21;14.30;99.90
21244;DHT22;10780;50.942;4.028;2022-12-31T03:28:11;14.40;99.90
21244;DHT22;10780;50.942;4.028;2022-12-31T03:30:41;14.50;99.90
21244;DHT22;10780;50.942;4.028;2022-12-31T03:33:07;14.60;99.90
21244;DHT22;10780;50.942;4.028;2022-12-31T03:35:35;14.70;99.90
21244;DHT22;10780;50.942;4.028;2022-12-31T03:38:02;14.70;99.90
21244;DHT22;10780;50.942;4.028;2022-12-31T03:40:29;14.70;99.90
21244;DHT22;10780;50.942;4.028;2022-12-31T03:42:55;14.80;99.90
21244;DHT22;10780;50.942;4.028;2022-12-31T03:45:21;14.80;99.90
21244;DHT22;10780;50.942;4.028;2022-12-31T03:47:46;14.80;99.90
21244;DHT22;10780;50.942;4.028;2022-12-31T03:50:15;14.80;99.90
21244;DHT22;10780;50.942;4.028;2022-12-31T03:52:41;14.90;99.90
21244;DHT22;10780;50.942;4.028;2022-12-31T03:55:07;14.90;99.90
21244;DHT22;10780;50.942;4.028;2022-12-31T03:57:33;14.90;99.90
21244;DHT22;10780;50.942;4.028;2022-12-31T03:59:59;14.90;99.90
21244;DHT22;10780;50.942;4.028;2022-12-31T04:02:25;15.00;99.90
21244;DHT22;10780;50.942;4.028;2022-12-31T04:04:51;15.00;99.90
21244;DHT22;10780;50.942;4.028;2022-12-31T04:07:16;15.00;99.90
21244;DHT22;10780;50.942;4.028;2022-12-31T04:09:42;15.00;99.90
21244;DHT22;10780;50.942;4.028;2022-12-31T04:12:08;14.90;99.90
21244;DHT22;10780;50.942;4.028;2022-12-31T04:14:33;15.00;99.90
21244;DHT22;10780;50.942;4.028;2022-12-31T04:16:59;15.10;99.90
21244;DHT22;10780;50.942;4.028;2022-12-31T04:19:25;15.20;99.90
21244;DHT22;10780;50.942;4.028;2022-12-31T04:21:50;15.30;99.90
21244;DHT22;10780;50.942;4.028;2022-12-31T04:24:16;15.20;99.90
21244;DHT22;10780;50.942;4.028;2022-12-31T04:26:42;15.10;99.90
21244;DHT22;10780;50.942;4.028;2022-12-31T04:29:09;15.20;99.90
21244;DHT22;10780;50.942;4.028;2022-12-31T04:31:34;15.20;99.90
21244;DHT22;10780;50.942;4.028;2022-12-31T04:34:00;15.20;99.90
21244;DHT22;10780;50.942;4.028;2022-12-31T04:36:26;15.10;99.90
21244;DHT22;10780;50.942;4.028;2022-12-31T04:38:51;15.20;99.90
21244;DHT22;10780;50.942;4.028;2022-12-31T04:41:17;15.20;99.90
21244;DHT22;10780;50.942;4.028;2022-12-31T04:43:49;15.20;99.90
21244;DHT22;10780;50.942;4.028;2022-12-31T04:46:17;15.20;99.90
21244;DHT22;10780;50.942;4.028;2022-12-31T04:48:43;15.20;99.90
21244;DHT22;10780;50.942;4.028;2022-12-31T04:51:09;15.20;99.90
21244;DHT22;10780;50.942;4.028;2022-12-31T04:53:35;15.20;99.90
21244;DHT22;10780;50.942;4.028;2022-12-31T04:56:01;15.20;99.90
21244;DHT22;10780;50.942;4.028;2022-12-31T04:58:26;15.20;99.90
21244;DHT22;10780;50.942;4.028;2022-12-31T05:00:53;15.10;99.90
21244;DHT22;10780;50.942;4.028;2022-12-31T05:03:23;15.20;99.90
21244;DHT22;10780;50.942;4.028;2022-12-31T05:05:49;15.20;99.90
21244;DHT22;10780;50.942;4.028;2022-12-31T05:08:16;15.30;99.90
21244;DHT22;10780;50.942;4.028;2022-12-31T05:10:44;15.30;99.90
21244;DHT22;10780;50.942;4.028;2022-12-31T05:13:10;15.40;99.90
21244;DHT22;10780;50.942;4.028;2022-12-31T05:15:36;15.50;99.90
21244;DHT22;10780;50.942;4.028;2022-12-31T05:18:02;15.50;99.90
21244;DHT22;10780;50.942;4.028;2022-12-31T05:20:27;15.60;99.90
21244;DHT22;10780;50.942;4.028;2022-12-31T05:22:54;15.60;99.90
21244;DHT22;10780;50.942;4.028;2022-12-31T05:25:20;15.60;99.90
21244;DHT22;10780;50.942;4.028;2022-12-31T05:27:45;15.60;99.90
21244;DHT22;10780;50.942;4.028;2022-12-31T05:30:11;15.60;99.90
21244;DHT22;10780;50.942;4.028;2022-12-31T05:32:37;15.60;99.90
21244;DHT22;10780;50.942;4.028;2022-12-31T05:35:03;15.60;99.90
21244;DHT22;10780;50.942;4.028;2022-12-31T05:37:29;15.60;99.90
21244;DHT22;10780;50.942;4.028;2022-12-31T05:39:55;15.70;99.90
21244;DHT22;10780;50.942;4.028;2022-12-31T05:42:21;15.60;99.90
21244;DHT22;10780;50.942;4.028;2022-12-31T05:44:47;15.60;99.90
21244;DHT22;10780;50.942;4.028;2022-12-31T05:47:13;15.60;99.90
21244;DHT22;10780;50.942;4.028;2022-12-31T05:49:39;15.70;99.90
21244;DHT22;10780;50.942;4.028;2022-12-31T05:52:04;15.70;99.90
21244;DHT22;10780;50.942;4.028;2022-12-31T05:54:31;15.80;99.90
21244;DHT22;10780;50.942;4.028;2022-12-31T05:56:56;15.80;99.90
21244;DHT22;10780;50.942;4.028;2022-12-31T05:59:22;15.70;99.90
21244;DHT22;10780;50.942;4.028;2022-12-31T06:01:48;15.70;99.90
21244;DHT22;10780;50.942;4.028;2022-12-31T06:04:14;15.60;99.90
21244;DHT22;10780;50.942;4.028;2022-12-31T06:06:39;15.70;99.90
21244;DHT22;10780;50.942;4.028;2022-12-31T06:09:05;15.80;99.90
21244;DHT22;10780;50.942;4.028;2022-12-31T06:11:31;15.80;99.90
21244;DHT22;10780;50.942;4.028;2022-12-31T06:13:56;15.70;99.90
21244;DHT22;10780;50.942;4.028;2022-12-31T06:16:25;15.70;99.90
21244;DHT22;10780;50.942;4.028;2022-12-31T06:18:51;15.80;99.90
21244;DHT22;10780;50.942;4.028;2022-12-31T06:21:18;15.80;99.90
21244;DHT22;10780;50.942;4.028;2022-12-31T06:23:44;15.80;99.90
21244;DHT22;10780;50.942;4.028;2022-12-31T06:26:10;15.80;99.90
21244;DHT22;10780;50.942;4.028;2022-12-31T06:28:36;15.90;99.90
21244;DHT22;10780;50.942;4.028;2022-12-31T06:31:03;15.90;99.90
21244;DHT22;10780;50.942;4.028;2022-12-31T06:33:29;15.80;99.90
21244;DHT22;10780;50.942;4.028;2022-12-31T06:35:59;15.90;99.90
21244;DHT22;10780;50.942;4.028;2022-12-31T06:38:28;15.90;99.90
21244;DHT22;10780;50.942;4.028;2022-12-31T06:40:54;15.90;99.90
21244;DHT22;10780;50.942;4.028;2022-12-31T06:43:21;16.00;99.90
21244;DHT22;10780;50.942;4.028;2022-12-31T06:45:47;16.00;99.90
21244;DHT22;10780;50.942;4.028;2022-12-31T06:48:13;16.00;99.90
21244;DHT22;10780;50.942;4.028;2022-12-31T06:50:38;16.00;99.90
21244;DHT22;10780;50.942;4.028;2022-12-31T06:53:05;16.00;99.90
21244;DHT22;10780;50.942;4.028;2022-12-31T06:55:31;16.00;99.90
21244;DHT22;10780;50.942;4.028;2022-12-31T06:57:57;15.90;99.90
21244;DHT22;10780;50.942;4.028;2022-12-31T07:00:22;15.90;99.90
21244;DHT22;10780;50.942;4.028;2022-12-31T07:03:36;15.90;99.90
21244;DHT22;10780;50.942;4.028;2022-12-31T07:05:57;15.80;99.90
21244;DHT22;10780;50.942;4.028;2022-12-31T07:11:29;15.70;99.90
21244;DHT22;10780;50.942;4.028;2022-12-31T07:14:31;15.60;99.90
21244;DHT22;10780;50.942;4.028;2022-12-31T07:17:13;15.60;99.90
21244;DHT22;10780;50.942;4.028;2022-12-31T07:19:54;15.50;99.90
21244;DHT22;10780;50.942;4.028;2022-12-31T07:22:20;15.50;99.90
21244;DHT22;10780;50.942;4.028;2022-12-31T07:24:46;15.40;99.90
21244;DHT22;10780;50.942;4.028;2022-12-31T07:48:51;15.20;99.90
21244;DHT22;10780;50.942;4.028;2022-12-31T07:51:17;15.30;99.90
21244;DHT22;10780;50.942;4.028;2022-12-31T07:53:42;15.40;99.90
21244;DHT22;10780;50.942;4.028;2022-12-31T07:56:09;15.40;99.90
21244;DHT22;10780;50.942;4.028;2022-12-31T08:01:46;15.50;99.90
21244;DHT22;10780;50.942;4.028;2022-12-31T08:10:18;15.50;99.90
21244;DHT22;10780;50.942;4.028;2022-12-31T08:12:48;15.50;99.90
21244;DHT22;10780;50.942;4.028;2022-12-31T08:15:16;15.60;99.90
21244;DHT22;10780;50.942;4.028;2022-12-31T08:17:43;15.60;99.90
21244;DHT22;10780;50.942;4.028;2022-12-31T08:20:13;15.60;99.90
21244;DHT22;10780;50.942;4.028;2022-12-31T08:23:04;15.70;99.90
21244;DHT22;10780;50.942;4.028;2022-12-31T08:26:05;15.70;99.90
21244;DHT22;10780;50.942;4.028;2022-12-31T08:29:12;15.70;99.90
21244;DHT22;10780;50.942;4.028;2022-12-31T08:32:04;15.70;99.90
21244;DHT22;10780;50.942;4.028;2022-12-31T08:35:42;15.70;99.90
21244;DHT22;10780;50.942;4.028;2022-12-31T08:40:27;15.80;99.90
21244;DHT22;10780;50.942;4.028;2022-12-31T08:45:51;15.80;99.90
21244;DHT22;10780;50.942;4.028;2022-12-31T08:50:43;16.00;99.90
21244;DHT22;10780;50.942;4.028;2022-12-31T08:53:08;16.00;99.90
21244;DHT22;10780;50.942;4.028;2022-12-31T08:55:34;16.00;99.90
21244;DHT22;10780;50.942;4.028;2022-12-31T09:00:49;16.00;99.90
21244;DHT22;10780;50.942;4.028;2022-12-31T09:03:47;16.10;99.90
21244;DHT22;10780;50.942;4.028;2022-12-31T09:06:31;16.10;99.90
21244;DHT22;10780;50.942;4.028;2022-12-31T09:17:45;16.20;99.90
21244;DHT22;10780;50.942;4.028;2022-12-31T09:20:31;16.20;99.90
21244;DHT22;10780;50.942;4.028;2022-12-31T09:22:58;16.20;99.90
21244;DHT22;10780;50.942;4.028;2022-12-31T09:25:25;16.20;99.90
21244;DHT22;10780;50.942;4.028;2022-12-31T09:28:29;16.20;99.90
21244;DHT22;10780;50.942;4.028;2022-12-31T09:31:20;16.20;99.90
21244;DHT22;10780;50.942;4.028;2022-12-31T09:33:52;16.30;99.90
21244;DHT22;10780;50.942;4.028;2022-12-31T09:36:33;16.40;99.90
21244;DHT22;10780;50.942;4.028;2022-12-31T09:39:30;16.40;99.90
21244;DHT22;10780;50.942;4.028;2022-12-31T09:48:35;16.30;99.90
21244;DHT22;10780;50.942;4.028;2022-12-31T09:51:07;16.20;99.90
21244;DHT22;10780;50.942;4.028;2022-12-31T09:54:17;16.20;99.90
21244;DHT22;10780;50.942;4.028;2022-12-31T10:00:32;16.20;99.90
21244;DHT22;10780;50.942;4.028;2022-12-31T10:09:40;16.20;99.90
21244;DHT22;10780;50.942;4.028;2022-12-31T10:36:53;16.50;99.90
21244;DHT22;10780;50.942;4.028;2022-12-31T10:48:05;16.50;99.90
21244;DHT22;10780;50.942;4.028;2022-12-31T10:51:13;16.40;99.90
21244;DHT22;10780;50.942;4.028;2022-12-31T10:53:59;16.30;99.90
21244;DHT22;10780;50.942;4.028;2022-12-31T11:05:03;16.40;99.90
21244;DHT22;10780;50.942;4.028;2022-12-31T11:07:55;16.40;99.90
21244;DHT22;10780;50.942;4.028;2022-12-31T11:14:19;16.40;99.90
21244;DHT22;10780;50.942;4.028;2022-12-31T11:22:41;16.40;99.90
21244;DHT22;10780;50.942;4.028;2022-12-31T11:28:11;16.30;99.90
21244;DHT22;10780;50.942;4.028;2022-12-31T11:33:36;16.10;99.90
21244;DHT22;10780;50.942;4.028;2022-12-31T11:36:29;16.00;99.90
21244;DHT22;10780;50.942;4.028;2022-12-31T11:41:57;16.10;99.90
21244;DHT22;10780;50.942;4.028;2022-12-31T11:44:45;16.20;99.90
21244;DHT22;10780;50.942;4.028;2022-12-31T11:50:02;16.20;99.90
21244;DHT22;10780;50.942;4.028;2022-12-31T11:52:56;16.20;99.90
21244;DHT22;10780;50.942;4.028;2022-12-31T11:55:42;16.20;99.90
21244;DHT22;10780;50.942;4.028;2022-12-31T11:58:16;16.30;99.90
21244;DHT22;10780;50.942;4.028;2022-12-31T12:00:58;16.40;99.90
21244;DHT22;10780;50.942;4.028;2022-12-31T12:03:25;16.40;99.90
21244;DHT22;10780;50.942;4.028;2022-12-31T12:05:51;16.50;99.90
21244;DHT22;10780;50.942;4.028;2022-12-31T12:08:17;16.60;99.90
21244;DHT22;10780;50.942;4.028;2022-12-31T12:11:38;16.70;99.90
21244;DHT22;10780;50.942;4.028;2022-12-31T12:13:57;16.70;99.90
21244;DHT22;10780;50.942;4.028;2022-12-31T12:16:24;16.70;99.90
21244;DHT22;10780;50.942;4.028;2022-12-31T12:19:06;16.80;99.90
21244;DHT22;10780;50.942;4.028;2022-12-31T12:21:32;16.80;99.90
21244;DHT22;10780;50.942;4.028;2022-12-31T12:24:13;16.80;99.90
21244;DHT22;10780;50.942;4.028;2022-12-31T12:26:43;16.70;99.90
21244;DHT22;10780;50.942;4.028;2022-12-31T12:29:29;16.70;99.90
21244;DHT22;10780;50.942;4.028;2022-12-31T12:34:33;16.70;99.90
21244;DHT22;10780;50.942;4.028;2022-12-31T12:36:59;16.80;99.90
21244;DHT22;10780;50.942;4.028;2022-12-31T12:39:31;16.80;99.90
21244;DHT22;10780;50.942;4.028;2022-12-31T12:42:11;16.80;99.90
21244;DHT22;10780;50.942;4.028;2022-12-31T12:44:37;16.80;99.90
21244;DHT22;10780;50.942;4.028;2022-12-31T12:47:05;16.70;99.90
21244;DHT22;10780;50.942;4.028;2022-12-31T12:49:45;16.60;99.90
21244;DHT22;10780;50.942;4.028;2022-12-31T13:00:04;16.80;99.90
21244;DHT22;10780;50.942;4.028;2022-12-31T13:16:35;17.10;99.90
21244;DHT22;10780;50.942;4.028;2022-12-31T13:22:13;16.90;99.90
21244;DHT22;10780;50.942;4.028;2022-12-31T13:27:39;16.70;99.90
21244;DHT22;10780;50.942;4.028;2022-12-31T13:33:04;16.70;99.90
21244;DHT22;10780;50.942;4.028;2022-12-31T13:36:01;16.70;99.90
21244;DHT22;10780;50.942;4.028;2022-12-31T13:38:35;16.70;99.90
21244;DHT22;10780;50.942;4.028;2022-12-31T13:41:10;16.50;99.90
21244;DHT22;10780;50.942;4.028;2022-12-31T13:47:02;16.60;99.90
21244;DHT22;10780;50.942;4.028;2022-12-31T13:52:41;16.50;99.90
21244;DHT22;10780;50.942;4.028;2022-12-31T13:55:32;16.50;99.90
21244;DHT22;10780;50.942;4.028;2022-12-31T13:58:30;16.50;99.90
21244;DHT22;10780;50.942;4.028;2022-12-31T14:01:05;16.40;99.90
21244;DHT22;10780;50.942;4.028;2022-12-31T14:08:52;16.60;99.90
21244;DHT22;10780;50.942;4.028;2022-12-31T14:11:44;16.60;99.90
21244;DHT22;10780;50.942;4.028;2022-12-31T14:17:00;16.40;99.90
21244;DHT22;10780;50.942;4.028;2022-12-31T14:22:27;16.30;99.90
21244;DHT22;10780;50.942;4.028;2022-12-31T14:24:54;16.40;99.90
21244;DHT22;10780;50.942;4.028;2022-12-31T14:27:21;16.40;99.90
21244;DHT22;10780;50.942;4.028;2022-12-31T14:30:03;16.40;99.90
21244;DHT22;10780;50.942;4.028;2022-12-31T14:33:14;16.30;99.90
21244;DHT22;10780;50.942;4.028;2022-12-31T14:57:25;16.00;99.90
21244;DHT22;10780;50.942;4.028;2022-12-31T14:59:56;16.00;99.90
21244;DHT22;10780;50.942;4.028;2022-12-31T15:02:25;16.00;99.90
21244;DHT22;10780;50.942;4.028;2022-12-31T15:10:22;15.80;99.90
21244;DHT22;10780;50.942;4.028;2022-12-31T15:13:12;15.80;99.90
21244;DHT22;10780;50.942;4.028;2022-12-31T15:23:54;15.80;99.90
21244;DHT22;10780;50.942;4.028;2022-12-31T15:26:38;15.70;99.90
21244;DHT22;10780;50.942;4.028;2022-12-31T15:31:47;15.80;99.90
21244;DHT22;10780;50.942;4.028;2022-12-31T15:36:52;15.90;99.90
21244;DHT22;10780;50.942;4.028;2022-12-31T15:41:48;15.80;99.90
21244;DHT22;10780;50.942;4.028;2022-12-31T15:47:32;15.80;99.90
21244;DHT22;10780;50.942;4.028;2022-12-31T15:50:04;15.70;99.90
21244;DHT22;10780;50.942;4.028;2022-12-31T15:52:46;15.60;99.90
21244;DHT22;10780;50.942;4.028;2022-12-31T15:55:37;15.70;99.90
21244;DHT22;10780;50.942;4.028;2022-12-31T15:58:19;15.70;99.90
21244;DHT22;10780;50.942;4.028;2022-12-31T16:01:08;15.80;99.90
21244;DHT22;10780;50.942;4.028;2022-12-31T16:03:35;15.70;99.90
21244;DHT22;10780;50.942;4.028;2022-12-31T16:06:08;15.70;99.90
21244;DHT22;10780;50.942;4.028;2022-12-31T16:08:35;15.70;99.90
21244;DHT22;10780;50.942;4.028;2022-12-31T16:11:05;15.60;99.90
21244;DHT22;10780;50.942;4.028;2022-12-31T16:13:34;15.60;99.90
21244;DHT22;10780;50.942;4.028;2022-12-31T16:16:27;15.60;99.90
21244;DHT22;10780;50.942;4.028;2022-12-31T16:18:54;15.60;99.90
21244;DHT22;10780;50.942;4.028;2022-12-31T16:23:59;15.60;99.90
21244;DHT22;10780;50.942;4.028;2022-12-31T16:26:45;15.60;99.90
21244;DHT22;10780;50.942;4.028;2022-12-31T16:29:14;15.50;99.90
21244;DHT22;10780;50.942;4.028;2022-12-31T16:31:42;15.50;99.90
21244;DHT22;10780;50.942;4.028;2022-12-31T16:34:17;15.40;99.90
21244;DHT22;10780;50.942;4.028;2022-12-31T16:36:54;15.40;99.90
21244;DHT22;10780;50.942;4.028;2022-12-31T16:41:45;15.40;99.90
21244;DHT22;10780;50.942;4.028;2022-12-31T16:44:28;15.40;99.90
21244;DHT22;10780;50.942;4.028;2022-12-31T16:46:56;15.40;99.90
21244;DHT22;10780;50.942;4.028;2022-12-31T16:49:23;15.20;99.90
21244;DHT22;10780;50.942;4.028;2022-12-31T16:51:49;15.20;99.90
21244;DHT22;10780;50.942;4.028;2022-12-31T16:54:29;15.30;99.90
21244;DHT22;10780;50.942;4.028;2022-12-31T16:56:56;15.30;99.90
21244;DHT22;10780;50.942;4.028;2022-12-31T17:01:48;15.30;99.90
21244;DHT22;10780;50.942;4.028;2022-12-31T17:04:18;15.30;99.90
21244;DHT22;10780;50.942;4.028;2022-12-31T17:06:44;15.20;99.90
21244;DHT22;10780;50.942;4.028;2022-12-31T17:09:15;15.20;99.90
21244;DHT22;10780;50.942;4.028;2022-12-31T17:12:16;15.10;99.90
21244;DHT22;10780;50.942;4.028;2022-12-31T17:14:48;15.00;99.90
21244;DHT22;10780;50.942;4.028;2022-12-31T17:17:22;15.00;99.90
21244;DHT22;10780;50.942;4.028;2022-12-31T17:19:56;15.00;99.90
21244;DHT22;10780;50.942;4.028;2022-12-31T17:22:32;15.00;99.90
21244;DHT22;10780;50.942;4.028;2022-12-31T17:25:01;15.00;99.90
21244;DHT22;10780;50.942;4.028;2022-12-31T17:27:28;15.10;99.90
21244;DHT22;10780;50.942;4.028;2022-12-31T17:30:18;15.10;99.90
21244;DHT22;10780;50.942;4.028;2022-12-31T17:32:44;15.20;99.90
21244;DHT22;10780;50.942;4.028;2022-12-31T17:35:33;15.30;99.90
21244;DHT22;10780;50.942;4.028;2022-12-31T17:38:35;15.20;99.90
21244;DHT22;10780;50.942;4.028;2022-12-31T17:43:36;15.30;99.90
21244;DHT22;10780;50.942;4.028;2022-12-31T17:46:13;15.30;99.90
21244;DHT22;10780;50.942;4.028;2022-12-31T17:48:40;15.30;99.90
21244;DHT22;10780;50.942;4.028;2022-12-31T17:51:05;15.20;99.90
21244;DHT22;10780;50.942;4.028;2022-12-31T17:53:31;15.20;99.90
21244;DHT22;10780;50.942;4.028;2022-12-31T17:56:01;15.30;99.90
21244;DHT22;10780;50.942;4.028;2022-12-31T17:58:43;15.30;99.90
21244;DHT22;10780;50.942;4.028;2022-12-31T18:01:12;15.30;99.90
21244;DHT22;10780;50.942;4.028;2022-12-31T18:03:39;15.30;99.90
21244;DHT22;10780;50.942;4.028;2022-12-31T18:06:05;15.30;99.90
21244;DHT22;10780;50.942;4.028;2022-12-31T18:08:30;15.40;99.90
21244;DHT22;10780;50.942;4.028;2022-12-31T18:10:56;15.40;99.90
21244;DHT22;10780;50.942;4.028;2022-12-31T18:13:26;15.40;99.90
21244;DHT22;10780;50.942;4.028;2022-12-31T18:15:52;15.40;99.90
21244;DHT22;10780;50.942;4.028;2022-12-31T18:18:22;15.50;99.90
21244;DHT22;10780;50.942;4.028;2022-12-31T18:20:53;15.50;99.90
21244;DHT22;10780;50.942;4.028;2022-12-31T18:23:24;15.50;99.90
21244;DHT22;10780;50.942;4.028;2022-12-31T18:25:50;15.50;99.90
21244;DHT22;10780;50.942;4.028;2022-12-31T18:28:16;15.50;99.90
21244;DHT22;10780;50.942;4.028;2022-12-31T18:30:42;15.60;99.90
21244;DHT22;10780;50.942;4.028;2022-12-31T18:33:13;15.60;99.90
21244;DHT22;10780;50.942;4.028;2022-12-31T18:35:41;15.60;99.90
21244;DHT22;10780;50.942;4.028;2022-12-31T18:38:15;15.60;99.90
21244;DHT22;10780;50.942;4.028;2022-12-31T18:40:43;15.60;99.90
21244;DHT22;10780;50.942;4.028;2022-12-31T18:43:18;15.50;99.90
21244;DHT22;10780;50.942;4.028;2022-12-31T18:45:45;15.60;99.90
21244;DHT22;10780;50.942;4.028;2022-12-31T18:48:11;15.60;99.90
21244;DHT22;10780;50.942;4.028;2022-12-31T18:50:44;15.60;99.90
21244;DHT22;10780;50.942;4.028;2022-12-31T18:53:19;15.60;99.90
21244;DHT22;10780;50.942;4.028;2022-12-31T18:55:54;15.50;99.90
21244;DHT22;10780;50.942;4.028;2022-12-31T18:58:20;15.50;99.90
21244;DHT22;10780;50.942;4.028;2022-12-31T19:00:47;15.40;99.90
21244;DHT22;10780;50.942;4.028;2022-12-31T19:03:16;15.40;99.90
21244;DHT22;10780;50.942;4.028;2022-12-31T19:05:42;15.50;99.90
21244;DHT22;10780;50.942;4.028;2022-12-31T19:08:09;15.50;99.90
21244;DHT22;10780;50.942;4.028;2022-12-31T19:10:35;15.60;99.90
21244;DHT22;10780;50.942;4.028;2022-12-31T19:13:01;15.60;99.90
21244;DHT22;10780;50.942;4.028;2022-12-31T19:15:40;15.50;99.90
21244;DHT22;10780;50.942;4.028;2022-12-31T19:18:06;15.40;99.90
21244;DHT22;10780;50.942;4.028;2022-12-31T19:20:34;15.40;99.90
21244;DHT22;10780;50.942;4.028;2022-12-31T19:22:59;15.50;99.90
21244;DHT22;10780;50.942;4.028;2022-12-31T19:25:33;15.40;99.90
21244;DHT22;10780;50.942;4.028;2022-12-31T19:28:05;15.40;99.90
21244;DHT22;10780;50.942;4.028;2022-12-31T19:30:32;15.30;99.90
21244;DHT22;10780;50.942;4.028;2022-12-31T19:32:58;15.30;99.90
21244;DHT22;10780;50.942;4.028;2022-12-31T19:35:25;15.30;99.90
21244;DHT22;10780;50.942;4.028;2022-12-31T19:37:52;15.20;99.90
21244;DHT22;10780;50.942;4.028;2022-12-31T19:40:24;15.30;99.90
21244;DHT22;10780;50.942;4.028;2022-12-31T19:42:51;15.20;99.90
21244;DHT22;10780;50.942;4.028;2022-12-31T19:45:25;15.10;99.90
21244;DHT22;10780;50.942;4.028;2022-12-31T19:47:53;15.10;99.90
21244;DHT22;10780;50.942;4.028;2022-12-31T19:50:21;15.10;99.90
21244;DHT22;10780;50.942;4.028;2022-12-31T19:52:48;15.10;99.90
21244;DHT22;10780;50.942;4.028;2022-12-31T19:55:17;15.10;99.90
21244;DHT22;10780;50.942;4.028;2022-12-31T19:57:44;15.10;99.90
21244;DHT22;10780;50.942;4.028;2022-12-31T20:00:11;15.00;99.90
21244;DHT22;10780;50.942;4.028;2022-12-31T20:02:39;15.00;99.90
21244;DHT22;10780;50.942;4.028;2022-12-31T20:05:06;15.10;99.90
21244;DHT22;10780;50.942;4.028;2022-12-31T20:07:32;15.10;99.90
21244;DHT22;10780;50.942;4.028;2022-12-31T20:09:58;15.00;99.90
21244;DHT22;10780;50.942;4.028;2022-12-31T20:12:24;15.10;99.90
21244;DHT22;10780;50.942;4.028;2022-12-31T20:14:49;15.10;99.90
21244;DHT22;10780;50.942;4.028;2022-12-31T20:17:15;15.10;99.90
21244;DHT22;10780;50.942;4.028;2022-12-31T20:19:41;15.10;99.90